Thursday, April 24, 2014
04:00 UTC
  |  Log In   |  Register Free
Airport Search:

Heart Of Georgia Regional Airport
(KEZM)

FAA data valid effective April 3, 2014 until May 29, 2014 (unless otherwise noted).

 
 
 
 
 
 
 
 
 
 
 
 
 
 

Current Aviation Weather for Heart Of Georgia Regional Airport (KEZM)

The most recent METAR observation for KEZM was updated at: 0255 UTC
METAR Summary (Translated METAR)
KEZM
240255Z AUTO 00000KT 10SM CLR 16/16 A2995 RMK AO2 T01550155
KDBN
(22.1 nm NE from KEZM)
240355Z AUTO 00000KT 10SM CLR 13/12 A2996 RMK AO2
TAF Summary (Translated TAF)
KWRB
(34.6 nm NW from KEZM)
2323/2503 VRB06KT 9999 SKC QNH2986INS BECMG 2414/2415 11009KT 9999 SKC QNH2990INS BECMG 2420/2421 18006KT 9999 SCT040 QNH2996INS TX27/2423Z TN10/2412Z AMD 232313
  Airport Weather Conditions for KEZM

 Current Weather at EZM
61° F
Fair
North winds at 0.0 mph
EZM NOAA Radar

Pressure: 29.95 in
Humidity: 96%
Wind: Calm
Dew Point: 59.9°F
Visibility: 7.00 mi


Airport Weather Forecast for KEZM

Translated METAR and TAF for KEZM
Translated METAR for KEZM (0401 UTC 24 April 2014)
found at http://aviationweather.gov/adds/metars/
 
METAR text: KEZM 240355Z AUTO 00000KT 1 1/4SM BR VV007 15/15 A2996 RMK AO2 T01470147
Conditions at: KEZM (EASTMAN , GA, US) observed 0355 UTC 24 April 2014
Temperature: 14.7°C (58°F)
Dewpoint: 14.7°C (58°F) [RH = 100%]
Pressure (altimeter): 29.96 inches Hg (1014.6 mb)
Winds: calm
Visibility: 1.25 miles (2.01 km)
Ceiling: indefinite ceiling with vertical visibility of 700 feet AGL
Clouds: obscured sky
Weather: BR  (mist)
Translated TAF for KEZM

There is no translated TAF available for this airport

Find All Airport Services Find A Hotel Find A Rental Car Find A Golf Course Find A Restaurant $100 Hamburger



FBO's on the Field
FBO Company Facility Photos Services Transportation Aviation Fuel Prices: Prices include tax
Catering Weather Repair Courtesy Rental Type 100LL JetA JetA+ MOGAS 8087
 
Heart of Georgia Regional Airport

This FBO has not yet been rated
FS:Phillips66
Last Updated: Apr-01
Login to update fuel prices
SS:
Contact Heart of Georgia Regional AirportMore FBO Information
 
Add another FBO Facility Photos Catering Weather Repair Courtesy Rental Type 100LL JetA JetA+ MOGAS 8087
Services Transportation Aviation Fuel Prices: Prices include tax


GlobalAir.com Airport Resource Center model-print
model-print
model-print
model-print